Time;durP1;ratioP1;P1;durP2;ratioP2;P2;SDS_P1;SDS_P2;PMS_P1;PMS_P2;Temp;Humidity;BMP_temperature;BMP_pressure;BME280_temperature;BME280_humidity;BME280_pressure;Samples;Min_cycle;Max_cycle;Signal;HPM_P1;HPM_P2
2022/06/29 00:00:18;;;;;;;9.52;6.90;;;16.60;99.90;;;;;;4998656;28;20374;-67
2022/06/29 00:02:45;;;;;;;10.80;7.15;;;16.50;99.90;;;;;;4982377;28;20080;-67
2022/06/29 00:17:53;;;;;;;8.68;7.78;;;16.40;99.90;;;;;;4958672;28;20049;-67
2022/06/29 00:20:18;;;;;;;9.80;7.13;;;16.30;99.90;;;;;;4976805;28;20041;-67
2022/06/29 00:22:45;;;;;;;9.80;7.40;;;16.30;99.90;;;;;;4994505;28;20037;-68
2022/06/29 00:25:11;;;;;;;9.02;7.25;;;16.30;99.90;;;;;;4992439;28;20056;-67
2022/06/29 00:27:38;;;;;;;8.00;6.80;;;16.30;99.90;;;;;;5011343;28;20045;-68
2022/06/29 00:30:05;;;;;;;9.10;6.80;;;16.30;99.90;;;;;;5011147;28;20052;-67
2022/06/29 00:32:31;;;;;;;7.72;6.25;;;16.30;99.90;;;;;;4994996;28;20050;-67
2022/06/29 00:34:58;;;;;;;8.85;5.85;;;16.30;99.90;;;;;;5010808;28;20048;-67
2022/06/29 00:37:24;;;;;;;11.57;6.47;;;16.30;99.90;;;;;;5011197;28;20049;-67
2022/06/29 00:39:50;;;;;;;8.15;6.22;;;16.30;99.90;;;;;;4995239;28;20498;-67
2022/06/29 00:42:16;;;;;;;10.65;6.35;;;16.30;99.90;;;;;;5011018;28;20033;-68
2022/06/29 00:44:41;;;;;;;6.72;5.88;;;16.30;99.90;;;;;;4978354;28;20045;-68
2022/06/29 00:47:07;;;;;;;9.63;5.95;;;16.30;99.90;;;;;;5011123;28;20046;-67
2022/06/29 00:49:34;;;;;;;8.65;6.05;;;16.30;99.90;;;;;;4994539;28;20043;-66
2022/06/29 00:52:07;;;;;;;8.75;6.22;;;16.20;99.90;;;;;;5010588;28;20046;-68
2022/06/29 00:54:43;;;;;;;10.85;6.63;;;16.20;99.90;;;;;;5010577;28;20093;-68
2022/06/29 00:57:16;;;;;;;11.02;6.57;;;16.20;99.90;;;;;;5010644;28;20119;-66
2022/06/29 00:59:48;;;;;;;8.25;6.47;;;16.20;99.90;;;;;;5010653;28;20041;-66
2022/06/29 01:02:14;;;;;;;;;;;16.20;99.90;;;;;;4994656;28;20521;-66
2022/06/29 01:04:41;;;;;;;8.80;7.15;;;16.10;99.90;;;;;;4993659;28;19949;-66
2022/06/29 01:07:07;;;;;;;11.88;7.25;;;16.10;99.90;;;;;;4994514;28;20042;-68
2022/06/29 01:09:33;;;;;;;7.70;6.85;;;16.10;99.90;;;;;;5010415;28;20050;-67
2022/06/29 01:11:59;;;;;;;11.15;7.30;;;16.10;99.90;;;;;;5010721;28;20053;-66
2022/06/29 01:14:25;;;;;;;8.60;6.63;;;16.10;99.90;;;;;;4994075;28;20084;-67
2022/06/29 01:16:51;;;;;;;9.27;6.75;;;16.20;99.90;;;;;;4994175;28;20049;-67
2022/06/29 01:19:17;;;;;;;8.70;7.30;;;16.10;99.90;;;;;;5010096;28;20460;-67
2022/06/29 01:21:45;;;;;;;10.02;7.43;;;16.10;99.90;;;;;;4994099;28;20046;-67
2022/06/29 01:24:11;;;;;;;8.10;7.28;;;16.10;99.90;;;;;;4993472;28;20112;-67
2022/06/29 01:26:36;;;;;;;9.85;7.50;;;16.10;99.90;;;;;;5010496;28;20045;-68
2022/06/29 01:29:02;;;;;;;9.00;7.80;;;16.10;99.90;;;;;;4993966;28;20046;-68
2022/06/29 01:31:28;;;;;;;11.18;7.38;;;16.00;99.90;;;;;;4993960;28;20129;-67
2022/06/29 01:33:53;;;;;;;10.57;7.47;;;16.00;99.90;;;;;;4993569;28;20042;-68
2022/06/29 01:36:19;;;;;;;10.85;8.00;;;16.00;99.90;;;;;;5014149;28;20389;-66
2022/06/29 01:38:45;;;;;;;9.23;7.85;;;16.00;99.90;;;;;;4997999;28;20041;-67
2022/06/29 01:41:11;;;;;;;8.88;7.82;;;15.90;99.90;;;;;;5014356;28;20073;-66
2022/06/29 01:43:38;;;;;;;12.73;8.80;;;15.90;99.90;;;;;;5014051;28;20038;-68
2022/06/29 01:46:04;;;;;;;11.95;8.52;;;15.90;99.90;;;;;;4998204;28;20478;-68
2022/06/29 01:48:30;;;;;;;9.77;8.27;;;15.90;99.90;;;;;;5013824;28;20050;-67
2022/06/29 01:50:55;;;;;;;10.32;8.88;;;15.90;99.90;;;;;;5014008;28;20084;-67
2022/06/29 01:53:21;;;;;;;9.52;8.55;;;15.80;99.90;;;;;;5013527;28;20077;-67
2022/06/29 01:55:47;;;;;;;11.57;8.93;;;15.80;99.90;;;;;;5014175;28;20037;-66
2022/06/29 01:58:14;;;;;;;10.38;9.25;;;15.80;99.90;;;;;;5013597;28;20115;-68
2022/06/29 02:00:40;;;;;;;11.13;9.82;;;15.80;99.90;;;;;;4997678;28;20057;-67
2022/06/29 02:03:06;;;;;;;12.02;9.55;;;15.80;99.90;;;;;;5013438;28;20042;-70
2022/06/29 02:05:32;;;;;;;10.65;9.55;;;15.80;99.90;;;;;;5014100;28;20042;-67
2022/06/29 02:07:58;;;;;;;12.07;9.05;;;15.80;99.90;;;;;;4997470;28;20049;-67
2022/06/29 02:10:24;;;;;;;10.43;9.27;;;15.80;99.90;;;;;;4997399;28;20041;-68
2022/06/29 02:12:49;;;;;;;14.27;10.25;;;15.70;99.90;;;;;;5013297;28;20048;-67
2022/06/29 02:15:15;;;;;;;11.30;9.90;;;15.90;99.90;;;;;;5013514;28;20157;-67
2022/06/29 02:17:41;;;;;;;11.88;9.90;;;15.70;99.90;;;;;;5000337;28;20646;-66
2022/06/29 02:20:07;;;;;;;12.82;9.73;;;15.70;99.90;;;;;;5016573;28;20052;-66
2022/06/29 02:22:34;;;;;;;11.43;9.65;;;15.70;99.90;;;;;;5000199;28;20126;-70
2022/06/29 02:25:00;;;;;;;12.40;9.80;;;15.70;99.90;;;;;;4983926;28;20045;-67
2022/06/29 02:27:25;;;;;;;13.48;10.05;;;15.70;99.90;;;;;;5025970;28;20045;-66
2022/06/29 02:29:51;;;;;;;15.00;9.88;;;15.60;99.90;;;;;;5000042;28;20041;-67
2022/06/29 02:35:01;;;;;;;12.35;9.98;;;15.70;99.90;;;;;;5016495;28;20076;-67
2022/06/29 02:37:27;;;;;;;10.85;9.75;;;15.60;99.90;;;;;;4984077;28;20037;-69
2022/06/29 02:39:53;;;;;;;13.20;10.05;;;15.60;99.90;;;;;;5016455;28;20045;-68
2022/06/29 02:42:19;;;;;;;12.73;9.88;;;15.60;99.90;;;;;;4980503;28;20045;-69
2022/06/29 02:44:45;;;;;;;11.43;10.13;;;15.70;99.90;;;;;;4999366;28;20055;-67
2022/06/29 02:47:11;;;;;;;11.73;10.40;;;15.70;99.90;;;;;;5015333;28;20120;-67
2022/06/29 02:49:37;;;;;;;11.73;9.93;;;15.70;99.90;;;;;;5015699;28;20051;-67
2022/06/29 02:52:03;;;;;;;11.73;10.40;;;15.80;99.90;;;;;;4999768;28;20049;-67
2022/06/29 02:54:29;;;;;;;12.18;10.57;;;15.70;99.90;;;;;;5015277;28;20148;-66
2022/06/29 02:56:54;;;;;;;13.93;10.70;;;15.80;99.90;;;;;;4999139;28;20493;-67
2022/06/29 02:59:21;;;;;;;11.98;10.15;;;15.80;99.90;;;;;;4999251;28;20252;-67
2022/06/29 03:01:47;;;;;;;12.73;10.35;;;15.70;99.90;;;;;;4999115;28;20069;-66
2022/06/29 03:04:13;;;;;;;11.18;10.07;;;15.80;99.90;;;;;;5014923;28;20073;-68
2022/06/29 03:06:39;;;;;;;12.88;10.68;;;15.80;99.90;;;;;;5015383;28;20045;-66
2022/06/29 03:09:05;;;;;;;14.15;11.38;;;15.70;99.90;;;;;;5015116;28;20096;-67
2022/06/29 03:11:31;;;;;;;15.15;10.75;;;15.80;99.90;;;;;;4999484;28;20486;-66
2022/06/29 03:13:57;;;;;;;12.27;10.55;;;15.70;99.90;;;;;;5015400;28;20128;-66
2022/06/29 03:16:23;;;;;;;12.82;10.90;;;15.80;99.90;;;;;;4999234;28;20140;-69
2022/06/29 03:18:49;;;;;;;13.20;11.73;;;15.80;99.90;;;;;;4999456;28;20087;-68
2022/06/29 03:21:16;;;;;;;11.95;10.43;;;15.70;99.90;;;;;;5015592;28;20103;-67
2022/06/29 03:23:43;;;;;;;12.77;10.73;;;15.70;99.90;;;;;;4998834;28;20084;-67
2022/06/29 03:26:08;;;;;;;13.13;11.80;;;15.80;99.90;;;;;;5015474;28;20044;-67
2022/06/29 03:28:34;;;;;;;12.35;11.05;;;15.70;99.90;;;;;;4999534;28;20041;-67
2022/06/29 03:31:00;;;;;;;12.45;10.55;;;15.70;99.90;;;;;;5015752;28;20045;-67
2022/06/29 03:33:26;;;;;;;12.35;11.13;;;15.70;99.90;;;;;;5015146;28;20041;-67
2022/06/29 03:35:51;;;;;;;12.25;10.98;;;15.70;99.90;;;;;;5015535;28;20069;-66
2022/06/29 03:38:17;;;;;;;12.65;11.23;;;15.70;99.90;;;;;;5015384;28;20041;-66
2022/06/29 03:40:43;;;;;;;13.95;10.70;;;15.70;99.90;;;;;;4999045;28;20057;-66
2022/06/29 03:43:09;;;;;;;14.80;11.45;;;15.70;99.90;;;;;;5014960;28;20048;-67
2022/06/29 03:45:34;;;;;;;14.10;10.80;;;15.70;99.90;;;;;;4999240;28;20386;-68
2022/06/29 03:48:00;;;;;;;12.30;10.95;;;15.70;99.90;;;;;;4979397;28;20180;-69
2022/06/29 03:50:26;;;;;;;13.13;11.32;;;15.70;99.90;;;;;;5005996;28;20060;-68
2022/06/29 03:52:51;;;;;;;12.52;11.25;;;15.80;99.90;;;;;;5014338;28;20065;-67
2022/06/29 03:55:17;;;;;;;13.77;11.30;;;15.80;99.90;;;;;;4998636;28;20045;-67
2022/06/29 03:57:43;;;;;;;12.93;11.30;;;15.90;99.90;;;;;;4998261;28;20561;-66
2022/06/29 04:00:12;;;;;;;12.82;10.93;;;15.90;99.90;;;;;;4998761;28;20041;-67
2022/06/29 04:02:37;;;;;;;12.70;11.38;;;16.00;99.90;;;;;;5014470;28;20405;-67
2022/06/29 04:05:04;;;;;;;12.75;11.38;;;16.00;99.90;;;;;;4982536;28;20053;-67
2022/06/29 04:07:31;;;;;;;13.70;11.43;;;16.00;99.90;;;;;;4998633;28;20088;-67
2022/06/29 04:09:59;;;;;;;13.95;11.15;;;16.10;99.90;;;;;;4997966;28;20401;-67
2022/06/29 04:12:29;;;;;;;12.77;11.23;;;16.10;99.90;;;;;;5014806;28;20048;-67
2022/06/29 04:14:55;;;;;;;14.23;11.27;;;16.20;99.90;;;;;;5014464;28;20160;-69
2022/06/29 04:17:21;;;;;;;12.00;10.48;;;16.20;99.90;;;;;;4998496;28;20057;-67
2022/06/29 04:19:47;;;;;;;15.23;11.00;;;16.30;99.90;;;;;;4978798;28;20042;-67
2022/06/29 04:22:13;;;;;;;12.45;11.25;;;16.30;99.90;;;;;;4997484;28;20037;-67
2022/06/29 04:24:38;;;;;;;13.60;11.38;;;16.30;99.90;;;;;;4981668;28;20047;-66
2022/06/29 04:27:04;;;;;;;13.15;11.20;;;16.40;99.90;;;;;;4998272;28;20049;-67
2022/06/29 04:29:30;;;;;;;12.23;10.60;;;16.40;99.90;;;;;;4997797;28;20047;-66
2022/06/29 04:31:55;;;;;;;11.60;10.40;;;16.50;99.90;;;;;;5014492;28;20049;-67
2022/06/29 04:34:21;;;;;;;12.60;10.75;;;16.50;99.90;;;;;;5014308;28;20046;-67
2022/06/29 04:36:47;;;;;;;13.80;10.93;;;16.60;99.90;;;;;;5014123;28;20049;-68
2022/06/29 04:39:13;;;;;;;14.48;10.32;;;16.60;99.90;;;;;;5014356;28;20339;-67
2022/06/29 04:41:41;;;;;;;12.90;10.50;;;16.70;99.90;;;;;;4997970;28;20413;-67
2022/06/29 04:44:07;;;;;;;11.68;10.05;;;16.80;99.90;;;;;;5013955;28;20047;-67
2022/06/29 04:46:33;;;;;;;13.35;10.38;;;16.90;99.90;;;;;;4997959;28;20045;-67
2022/06/29 04:49:01;;;;;;;11.80;10.27;;;17.00;99.90;;;;;;5014040;28;20068;-67
2022/06/29 04:51:29;;;;;;;11.82;10.00;;;17.00;99.90;;;;;;4997641;28;20053;-67
2022/06/29 04:53:56;;;;;;;11.27;10.18;;;17.10;99.90;;;;;;5013326;28;20049;-67
2022/06/29 04:56:24;;;;;;;12.93;9.45;;;17.10;99.90;;;;;;4997851;28;20053;-66
2022/06/29 04:58:51;;;;;;;11.93;9.55;;;17.10;99.90;;;;;;5014166;28;20120;-68
2022/06/29 05:01:21;;;;;;;13.82;9.95;;;17.20;99.90;;;;;;4997544;28;20120;-69
2022/06/29 05:03:47;;;;;;;12.20;9.82;;;17.20;99.90;;;;;;4997258;28;20037;-67
2022/06/29 05:06:13;;;;;;;10.82;9.73;;;17.30;99.90;;;;;;5013794;28;20042;-67
2022/06/29 05:08:39;;;;;;;12.70;9.63;;;17.30;99.90;;;;;;5013809;28;20068;-67
2022/06/29 05:11:05;;;;;;;10.48;9.40;;;17.40;99.90;;;;;;4997404;28;20432;-68
2022/06/29 05:13:31;;;;;;;11.98;9.63;;;17.50;99.90;;;;;;4996786;28;20042;-68
2022/06/29 05:15:57;;;;;;;11.20;9.40;;;17.50;99.90;;;;;;5011815;28;20066;-67
2022/06/29 05:18:22;;;;;;;10.55;9.50;;;17.50;99.90;;;;;;4997857;28;20091;-67
2022/06/29 05:20:48;;;;;;;11.07;9.38;;;17.60;99.90;;;;;;5013816;28;20079;-67
2022/06/29 05:23:14;;;;;;;9.93;8.98;;;17.60;99.90;;;;;;5013276;28;20053;-67
2022/06/29 05:25:40;;;;;;;10.65;9.38;;;17.70;99.90;;;;;;5013902;28;20048;-66
2022/06/29 05:28:06;;;;;;;11.82;8.98;;;17.80;99.90;;;;;;4997373;28;20481;-70
2022/06/29 05:30:32;;;;;;;10.38;9.15;;;17.90;99.90;;;;;;5013898;28;20076;-67
2022/06/29 05:32:58;;;;;;;10.48;9.35;;;17.90;99.90;;;;;;5013234;28;20081;-67
2022/06/29 05:35:24;;;;;;;10.20;9.20;;;18.00;99.90;;;;;;4997031;28;20120;-67
2022/06/29 05:37:49;;;;;;;10.45;9.18;;;18.00;99.90;;;;;;5013784;28;20042;-67
2022/06/29 05:40:16;;;;;;;10.60;9.27;;;18.10;99.90;;;;;;4997525;28;20080;-67
2022/06/29 05:42:41;;;;;;;10.05;9.05;;;18.20;99.90;;;;;;5013423;28;20046;-68
2022/06/29 05:45:07;;;;;;;9.68;8.80;;;18.30;99.90;;;;;;4997386;28;20045;-67
2022/06/29 05:47:33;;;;;;;11.77;8.98;;;18.40;99.90;;;;;;4994285;28;20046;-67
2022/06/29 05:50:00;;;;;;;9.18;8.38;;;18.40;99.90;;;;;;5010209;28;20648;-68
2022/06/29 05:52:27;;;;;;;9.50;8.60;;;18.50;99.90;;;;;;4993645;28;20483;-68
2022/06/29 05:54:52;;;;;;;9.65;8.73;;;18.60;99.90;;;;;;4965000;28;20398;-67
2022/06/29 05:57:19;;;;;;;9.57;8.57;;;18.60;99.90;;;;;;5007046;28;20053;-67
2022/06/29 05:59:48;;;;;;;9.57;8.45;;;18.70;99.90;;;;;;4997486;28;20056;-66
2022/06/29 06:02:14;;;;;;;9.35;7.80;;;18.80;99.90;;;;;;4997198;28;20047;-68
2022/06/29 06:04:40;;;;;;;8.63;7.80;;;19.00;99.90;;;;;;5012917;28;20128;-67
2022/06/29 06:07:06;;;;;;;8.38;7.40;;;19.10;99.90;;;;;;5013710;28;20124;-70
2022/06/29 06:09:32;;;;;;;8.48;7.20;;;19.20;99.90;;;;;;5013661;28;20476;-67
2022/06/29 06:11:58;;;;;;;8.15;7.38;;;19.30;99.90;;;;;;5013568;28;20058;-67
2022/06/29 06:14:26;;;;;;;8.10;7.40;;;19.40;99.90;;;;;;5013045;28;20045;-67
2022/06/29 06:16:52;;;;;;;8.25;7.03;;;19.50;99.90;;;;;;5012931;28;20048;-67
2022/06/29 06:19:18;;;;;;;7.18;6.57;;;19.60;99.90;;;;;;5013165;28;20042;-69
2022/06/29 06:21:44;;;;;;;7.72;6.90;;;19.70;99.90;;;;;;4999219;28;20390;-67
2022/06/29 06:24:09;;;;;;;10.73;6.85;;;19.80;99.90;;;;;;5016682;28;20083;-67
2022/06/29 06:26:35;;;;;;;7.55;6.50;;;19.90;99.90;;;;;;5017051;28;20041;-68
2022/06/29 06:29:01;;;;;;;7.30;6.60;;;20.00;99.90;;;;;;5016838;28;20045;-67
2022/06/29 06:31:27;;;;;;;7.93;5.80;;;20.00;99.90;;;;;;5000340;28;20513;-67
2022/06/29 06:33:53;;;;;;;7.60;5.85;;;20.20;99.90;;;;;;5016369;28;20041;-68
2022/06/29 06:36:19;;;;;;;6.43;5.32;;;20.30;99.90;;;;;;5000704;28;20045;-67
2022/06/29 06:38:44;;;;;;;9.00;5.53;;;20.50;99.90;;;;;;5000428;28;20389;-69
2022/06/29 06:41:22;;;;;;;7.53;5.30;;;20.60;99.90;;;;;;5016719;28;20042;-68
2022/06/29 06:43:56;;;;;;;5.35;4.75;;;20.70;99.90;;;;;;5000034;28;20068;-68
2022/06/29 06:46:22;;;;;;;5.40;4.90;;;20.80;99.90;;;;;;5016562;28;20080;-67
2022/06/29 06:48:52;;;;;;;9.40;5.00;;;20.90;99.90;;;;;;5016480;28;20080;-67
2022/06/29 06:51:19;;;;;;;8.77;5.30;;;21.00;99.90;;;;;;5016438;28;20042;-67
2022/06/29 06:53:46;;;;;;;7.07;5.25;;;21.10;99.90;;;;;;4999405;28;20056;-68
2022/06/29 06:56:12;;;;;;;5.13;4.55;;;21.20;99.90;;;;;;4980397;28;20076;-67
2022/06/29 06:58:39;;;;;;;6.03;4.35;;;21.20;99.90;;;;;;4996639;28;20129;-67
2022/06/29 07:01:06;;;;;;;6.50;4.22;;;21.30;99.90;;;;;;4999456;28;20053;-68
2022/06/29 07:03:35;;;;;;;6.40;4.22;;;21.40;99.90;;;;;;5000041;28;20080;-67
2022/06/29 07:06:05;;;;;;;4.57;3.55;;;21.50;99.90;;;;;;4984402;28;20041;-68
2022/06/29 07:08:35;;;;;;;6.30;4.13;;;21.60;99.90;;;;;;4999883;28;20037;-68
2022/06/29 07:11:03;;;;;;;4.13;3.50;;;21.70;99.90;;;;;;5000005;28;20049;-68
2022/06/29 07:13:29;;;;;;;3.67;3.25;;;21.70;99.90;;;;;;4999252;28;20049;-67
2022/06/29 07:15:55;;;;;;;3.60;3.20;;;21.80;99.90;;;;;;5016009;28;20048;-67
2022/06/29 07:18:21;;;;;;;4.68;3.35;;;21.90;99.90;;;;;;5016082;28;20045;-67
2022/06/29 07:20:48;;;;;;;3.72;3.28;;;22.00;99.90;;;;;;4999772;28;20038;-67
2022/06/29 07:23:14;;;;;;;5.30;3.10;;;22.10;99.90;;;;;;5015199;28;20049;-67
2022/06/29 07:25:42;;;;;;;3.80;3.17;;;22.20;99.90;;;;;;5015387;28;20056;-67
2022/06/29 07:28:08;;;;;;;5.53;3.00;;;22.20;99.90;;;;;;5015997;28;20045;-67
2022/06/29 07:30:34;;;;;;;3.60;3.03;;;22.30;99.90;;;;;;4999412;28;20052;-70
2022/06/29 07:33:00;;;;;;;3.50;2.72;;;22.40;99.90;;;;;;4998322;28;20046;-68
2022/06/29 07:35:26;;;;;;;3.33;3.00;;;22.40;99.90;;;;;;5015785;28;20045;-67
2022/06/29 07:37:53;;;;;;;5.75;3.13;;;22.40;99.90;;;;;;4999458;28;20512;-67
2022/06/29 07:40:19;;;;;;;4.07;3.00;;;22.40;99.90;;;;;;5015694;28;20474;-68
2022/06/29 07:42:45;;;;;;;4.05;2.70;;;22.60;99.90;;;;;;4999012;28;20052;-67
2022/06/29 07:45:10;;;;;;;3.10;2.80;;;22.70;99.90;;;;;;5015712;28;20393;-67
2022/06/29 07:47:36;;;;;;;3.55;2.92;;;22.80;99.90;;;;;;4999207;28;20041;-70
2022/06/29 07:50:04;;;;;;;4.53;2.97;;;22.90;99.90;;;;;;4998964;28;20128;-67
2022/06/29 07:52:32;;;;;;;3.65;2.97;;;23.00;99.90;;;;;;4998272;28;20068;-67
2022/06/29 07:54:59;;;;;;;4.65;3.03;;;23.10;99.90;;;;;;4979772;28;20104;-67
2022/06/29 07:57:25;;;;;;;4.70;3.25;;;23.10;99.90;;;;;;5010381;28;20045;-68
2022/06/29 07:59:53;;;;;;;6.88;3.13;;;23.20;99.90;;;;;;5015175;28;20123;-68
2022/06/29 08:02:19;;;;;;;3.95;3.20;;;23.30;99.90;;;;;;5014687;28;20045;-67
2022/06/29 08:04:45;;;;;;;4.50;2.95;;;23.40;99.90;;;;;;5015047;28;20497;-67
2022/06/29 08:07:11;;;;;;;3.72;3.30;;;23.40;99.90;;;;;;5014834;28;20466;-71
2022/06/29 08:09:36;;;;;;;4.10;2.78;;;23.50;99.00;;;;;;5014822;28;20725;-69
2022/06/29 08:12:02;;;;;;;4.05;3.05;;;23.60;98.90;;;;;;5015069;28;20037;-68
2022/06/29 08:14:29;;;;;;;6.15;3.15;;;23.70;98.50;;;;;;5014505;28;20099;-67
2022/06/29 08:16:56;;;;;;;5.15;3.13;;;23.70;97.30;;;;;;5011533;28;20478;-68
2022/06/29 08:19:21;;;;;;;5.88;3.47;;;23.70;97.50;;;;;;4995358;28;20056;-68
2022/06/29 08:21:48;;;;;;;4.90;3.17;;;23.70;97.20;;;;;;4994956;28;20484;-67
2022/06/29 08:24:13;;;;;;;4.60;2.80;;;23.80;96.60;;;;;;5011056;28;20128;-67
2022/06/29 08:26:39;;;;;;;5.13;3.17;;;23.90;96.40;;;;;;5011392;28;20045;-67
2022/06/29 08:29:05;;;;;;;6.10;3.20;;;24.10;96.60;;;;;;4995182;28;20124;-67
2022/06/29 08:31:31;;;;;;;3.47;3.17;;;24.20;95.90;;;;;;4995033;28;20434;-66
2022/06/29 08:33:56;;;;;;;3.80;3.42;;;24.30;95.60;;;;;;4994788;28;20038;-67
2022/06/29 08:36:22;;;;;;;4.70;3.35;;;24.40;95.20;;;;;;4994961;28;20045;-68
2022/06/29 08:38:48;;;;;;;5.45;3.60;;;24.40;95.10;;;;;;4994449;28;20038;-68
2022/06/29 08:41:15;;;;;;;5.47;3.58;;;24.50;93.20;;;;;;4995043;28;20038;-67
2022/06/29 08:43:42;;;;;;;3.45;3.13;;;24.50;93.60;;;;;;4994122;28;20056;-68
2022/06/29 08:46:11;;;;;;;4.20;3.22;;;24.60;94.10;;;;;;5010713;28;20077;-67
2022/06/29 08:48:36;;;;;;;4.90;3.22;;;24.70;93.70;;;;;;4994726;28;20124;-69
2022/06/29 08:51:03;;;;;;;4.88;3.10;;;24.90;94.70;;;;;;5011131;28;20069;-68
2022/06/29 08:53:29;;;;;;;4.03;3.00;;;25.00;93.40;;;;;;5010298;28;20049;-67
2022/06/29 08:55:55;;;;;;;3.05;2.72;;;25.20;93.10;;;;;;4994688;28;20049;-69
2022/06/29 08:58:23;;;;;;;4.68;2.90;;;25.30;92.70;;;;;;4994905;28;20127;-68
2022/06/29 09:00:49;;;;;;;5.40;3.03;;;25.40;92.50;;;;;;4994756;28;20056;-68
2022/06/29 09:03:18;;;;;;;4.95;3.15;;;25.50;92.50;;;;;;5010590;28;20104;-68
2022/06/29 09:05:48;;;;;;;6.47;3.38;;;25.50;90.30;;;;;;5010882;28;20497;-67
2022/06/29 09:08:15;;;;;;;3.40;3.10;;;25.70;91.20;;;;;;5010924;28;20132;-69
2022/06/29 09:10:41;;;;;;;3.42;3.10;;;25.80;90.00;;;;;;4978407;28;20052;-67
2022/06/29 09:13:08;;;;;;;6.57;3.08;;;25.90;88.80;;;;;;5010397;28;20037;-68
2022/06/29 09:15:41;;;;;;;3.50;2.88;;;26.00;89.80;;;;;;4995041;28;20061;-68
2022/06/29 09:18:30;;;;;;;4.60;3.30;;;26.10;90.50;;;;;;4994329;28;20046;-70
2022/06/29 09:20:59;;;;;;;4.82;3.00;;;25.80;81.00;;;;;;5010614;28;20062;-67
2022/06/29 09:23:25;;;;;;;4.68;3.15;;;25.80;86.60;;;;;;5010129;28;20042;-68
2022/06/29 09:25:52;;;;;;;4.45;3.30;;;25.70;86.90;;;;;;4994483;28;20367;-68
2022/06/29 09:28:29;;;;;;;3.20;2.90;;;25.90;87.30;;;;;;4994248;28;20045;-68
2022/06/29 09:30:56;;;;;;;5.60;3.13;;;26.10;85.70;;;;;;5010664;28;20073;-69
2022/06/29 09:33:24;;;;;;;5.75;3.28;;;26.20;86.10;;;;;;4993765;28;20052;-67
2022/06/29 09:36:10;;;;;;;3.88;2.90;;;26.30;86.30;;;;;;4994741;28;20052;-67
2022/06/29 09:38:37;;;;;;;4.45;3.38;;;26.30;81.20;;;;;;5010718;28;20077;-70
2022/06/29 09:41:10;;;;;;;4.55;3.40;;;26.60;88.10;;;;;;4994387;28;20042;-67
2022/06/29 09:43:41;;;;;;;3.85;3.28;;;26.70;83.10;;;;;;5010328;28;20034;-71
2022/06/29 09:46:08;;;;;;;;;;;26.80;82.30;;;;;;5011024;28;20042;-69
2022/06/29 09:48:35;;;;;;;4.07;3.13;;;27.00;84.70;;;;;;5010696;28;19921;-67
2022/06/29 09:51:30;;;;;;;3.85;3.28;;;27.10;83.90;;;;;;5010505;28;20034;-67
2022/06/29 09:53:52;;;;;;;5.10;3.00;;;27.20;83.20;;;;;;5009475;28;20050;-67
2022/06/29 09:56:20;;;;;;;2.90;2.58;;;27.20;79.80;;;;;;4996118;28;20042;-67
2022/06/29 09:58:47;;;;;;;4.13;3.25;;;27.50;79.10;;;;;;4997941;28;20046;-68
2022/06/29 10:04:00;;;;;;;4.47;3.33;;;27.60;75.40;;;;;;5013609;28;20046;-69
2022/06/29 10:06:26;;;;;;;4.63;2.90;;;27.80;76.10;;;;;;4997908;28;20450;-67
2022/06/29 10:08:53;;;;;;;4.07;2.50;;;27.90;77.10;;;;;;5014107;28;20479;-68
2022/06/29 10:14:43;;;;;;;3.53;2.50;;;28.30;68.80;;;;;;5013434;28;20581;-68
2022/06/29 10:17:14;;;;;;;3.05;2.85;;;28.20;69.20;;;;;;5013701;28;20381;-68
2022/06/29 10:20:08;;;;;;;3.60;2.60;;;28.10;68.30;;;;;;5013797;28;20046;-68
2022/06/29 10:22:33;;;;;;;2.85;2.38;;;28.30;69.60;;;;;;5013223;28;20050;-67
2022/06/29 10:25:07;;;;;;;2.53;2.20;;;28.30;68.50;;;;;;4997184;28;20034;-67
2022/06/29 10:27:33;;;;;;;3.50;2.63;;;28.50;67.50;;;;;;4998807;28;20048;-67
2022/06/29 10:30:28;;;;;;;3.80;2.30;;;28.70;67.80;;;;;;5013483;28;20038;-68
2022/06/29 10:33:29;;;;;;;2.55;2.20;;;28.80;65.10;;;;;;4992243;28;20060;-72
2022/06/29 10:36:06;;;;;;;3.83;2.25;;;29.10;66.70;;;;;;5013680;28;20042;-68
2022/06/29 10:38:55;;;;;;;2.63;2.42;;;29.20;67.20;;;;;;5013589;28;20046;-68
2022/06/29 10:44:07;;;;;;;3.10;2.53;;;28.80;65.00;;;;;;5013228;28;20048;-70
2022/06/29 10:46:58;;;;;;;4.18;2.40;;;29.10;64.50;;;;;;4997357;28;20038;-68
2022/06/29 10:49:27;;;;;;;3.63;2.40;;;29.40;62.80;;;;;;4996672;28;20058;-70
2022/06/29 10:51:53;;;;;;;4.05;3.08;;;29.40;62.90;;;;;;4996785;28;20532;-71
2022/06/29 10:54:32;;;;;;;5.38;2.72;;;29.30;62.70;;;;;;4996487;28;20498;-68
2022/06/29 10:56:58;;;;;;;2.40;2.20;;;29.70;59.70;;;;;;4997105;28;20046;-68
2022/06/29 10:59:34;;;;;;;3.65;2.47;;;29.70;61.60;;;;;;5013061;28;20041;-69
2022/06/29 11:02:19;;;;;;;3.80;2.60;;;29.80;61.60;;;;;;5012661;28;20038;-67
2022/06/29 11:04:44;;;;;;;3.50;2.50;;;29.50;59.20;;;;;;5012902;28;20052;-69
2022/06/29 11:12:50;;;;;;;3.70;2.90;;;28.90;60.50;;;;;;5012300;28;20509;-67
2022/06/29 11:15:41;;;;;;;3.40;2.60;;;28.70;60.00;;;;;;5012583;28;20042;-68
2022/06/29 11:18:07;;;;;;;;;;;28.70;60.30;;;;;;5012793;28;20053;-68
2022/06/29 11:20:32;;;;;;;2.90;2.60;;;28.30;59.70;;;;;;5012777;28;20259;-67
2022/06/29 11:22:58;;;;;;;2.90;2.60;;;28.20;61.80;;;;;;4995853;28;20497;-69
2022/06/29 11:25:26;;;;;;;4.30;2.55;;;28.20;62.10;;;;;;4980338;28;20052;-68
2022/06/29 11:27:52;;;;;;;3.05;2.58;;;28.20;62.50;;;;;;4996397;28;20061;-67
2022/06/29 11:30:22;;;;;;;2.97;2.78;;;28.30;62.30;;;;;;5012150;28;20550;-69
2022/06/29 11:32:49;;;;;;;2.75;2.45;;;28.40;61.30;;;;;;5012062;28;20312;-68
2022/06/29 11:35:23;;;;;;;3.20;2.38;;;28.30;61.70;;;;;;4996111;28;20050;-69
2022/06/29 11:38:02;;;;;;;3.47;2.70;;;28.40;61.40;;;;;;4996394;28;20054;-68
2022/06/29 11:40:43;;;;;;;3.33;2.75;;;28.40;59.90;;;;;;4996215;28;20529;-68
2022/06/29 11:43:11;;;;;;;4.07;2.80;;;28.30;59.10;;;;;;5011792;28;20046;-67
2022/06/29 11:45:49;;;;;;;4.35;2.70;;;28.40;60.00;;;;;;4996188;28;20052;-68
2022/06/29 11:48:23;;;;;;;3.33;2.80;;;28.30;56.40;;;;;;5012021;28;20048;-68
2022/06/29 11:50:53;;;;;;;3.50;3.00;;;28.40;58.60;;;;;;5012081;28;20042;-67
2022/06/29 11:53:39;;;;;;;3.40;3.17;;;28.30;58.70;;;;;;5011625;28;20124;-68
2022/06/29 11:56:13;;;;;;;4.00;3.60;;;28.90;57.10;;;;;;4995170;28;20042;-67
2022/06/29 11:58:42;;;;;;;4.00;3.70;;;29.40;58.50;;;;;;4995626;28;20041;-67
2022/06/29 12:01:13;;;;;;;4.32;3.70;;;29.80;57.70;;;;;;5012051;28;20073;-67
2022/06/29 12:03:39;;;;;;;4.35;3.95;;;29.80;58.20;;;;;;5011492;28;20045;-67
2022/06/29 12:06:08;;;;;;;3.97;3.67;;;29.40;57.10;;;;;;4995680;28;20095;-67
2022/06/29 12:08:34;;;;;;;3.55;3.35;;;29.00;57.40;;;;;;4995606;28;20376;-69
2022/06/29 12:11:00;;;;;;;4.60;4.10;;;29.70;59.90;;;;;;4995503;28;20060;-68
2022/06/29 12:13:25;;;;;;;4.05;3.67;;;30.20;59.40;;;;;;5011175;28;20045;-68
2022/06/29 12:15:51;;;;;;;4.60;3.70;;;30.10;58.80;;;;;;4995992;28;20104;-68
2022/06/29 12:18:17;;;;;;;5.93;4.25;;;30.20;59.30;;;;;;4982386;28;20045;-67
2022/06/29 12:20:43;;;;;;;3.85;3.42;;;30.00;58.80;;;;;;5014742;28;20100;-68
2022/06/29 12:23:09;;;;;;;6.82;4.10;;;29.90;59.20;;;;;;5014074;28;20045;-68
2022/06/29 12:25:36;;;;;;;4.40;4.00;;;29.90;59.40;;;;;;5014896;28;20120;-68
2022/06/29 12:28:02;;;;;;;4.50;4.10;;;30.20;59.90;;;;;;4998362;28;20405;-68
2022/06/29 12:30:29;;;;;;;4.60;4.13;;;30.30;59.10;;;;;;4982111;28;20073;-68
2022/06/29 12:32:54;;;;;;;5.22;4.32;;;30.80;59.60;;;;;;5014194;28;20043;-68
2022/06/29 12:35:20;;;;;;;5.20;4.80;;;30.60;58.80;;;;;;4981961;28;20067;-70
2022/06/29 12:37:46;;;;;;;6.35;4.88;;;30.60;59.70;;;;;;5014669;28;20037;-68
2022/06/29 12:40:12;;;;;;;4.93;4.50;;;30.10;58.90;;;;;;4994957;28;20084;-68
2022/06/29 12:42:39;;;;;;;5.32;4.82;;;29.90;59.00;;;;;;4997712;28;20500;-67
2022/06/29 12:45:05;;;;;;;5.45;4.95;;;29.70;59.20;;;;;;5014592;28;20166;-67
2022/06/29 12:47:31;;;;;;;5.10;4.63;;;29.50;59.30;;;;;;4998321;28;20049;-69
2022/06/29 12:49:57;;;;;;;5.50;4.97;;;29.40;60.30;;;;;;5014311;28;20041;-67
2022/06/29 12:52:23;;;;;;;6.38;5.55;;;29.60;61.40;;;;;;5013831;28;20041;-68
2022/06/29 12:54:49;;;;;;;5.78;5.07;;;29.50;61.00;;;;;;4978823;28;20081;-67
2022/06/29 12:57:18;;;;;;;6.57;5.50;;;29.30;61.00;;;;;;5024164;28;20073;-68
2022/06/29 12:59:44;;;;;;;6.50;5.13;;;29.30;62.00;;;;;;5014437;28;20057;-68
2022/06/29 13:02:10;;;;;;;6.10;5.50;;;29.40;62.60;;;;;;5013784;28;20045;-68
2022/06/29 13:04:36;;;;;;;6.22;5.63;;;29.40;62.40;;;;;;5014329;28;20049;-69
2022/06/29 13:07:02;;;;;;;6.20;5.70;;;29.30;62.60;;;;;;5014314;28;20117;-67
2022/06/29 13:09:28;;;;;;;6.43;5.80;;;29.30;62.50;;;;;;4997463;28;20037;-67
2022/06/29 13:11:54;;;;;;;7.03;5.80;;;29.30;63.00;;;;;;5013937;28;20478;-67
2022/06/29 13:14:20;;;;;;;6.10;5.60;;;29.10;62.20;;;;;;5014284;28;20052;-69